Terminal Aerodrome Forecast
Issued by NWS

Home | Current Version | Previous Version | Text Only | Print | Product List | Glossary On
Versions: 1 2 3 4 5 6 7 8 9 10 11 12 13 14 15 16 17 18 19 20 21 22
000
FTUS41 KPBZ 211100
TAFFKL
TAF
KFKL 211138Z 2112/2212 21005KT 2SM BR SCT250
      TEMPO 2112/2114 1SM BR
     FM211400 25008KT P6SM BKN050
     FM220300 VRB03KT P6SM SCT050
     FM220800 VRB03KT 4SM BR SCT040
      AMD LTD TO CLD VIS AND WIND=

USA.gov is the U.S. government's official web portal to all federal, state and local government web resources and services.